KMBL/MBL METAR and TAF weather

Enter ICAO airport designator
Station Type Date Time Source
KMBL METAR 2020/08/10 17:56 UTC NOAA

KMBL 101756Z AUTO VRB05KT 10SM SCT018 28/24 A2985 RMK AO2 SLP103 60000 T02780244 10283 20239 56026


Station Type Date Time Source
KMBL Decoded METAR 2020/08/10 17:56 UTC NOAA

Manistee, Manistee County-Blacker Airport, MI, United States (KMBL) 44-16N 086-15W
Aug 10, 2020 - 01:56 PM EDT / 2020.08.10 1756 UTC
Wind: Variable at 6 MPH (5 KT):0
Visibility: 10 mile(s):0
Sky conditions: partly cloudy
Temperature: 82.0 F (27.8 C)
Dew Point: 75.9 F (24.4 C)
Relative Humidity: 81%
Pressure (altimeter): 29.85 in. Hg (1010 hPa)
Pressure tendency: 0.08 inches (2.6 hPa) lower than three hours ago
ob: KMBL 101756Z AUTO VRB05KT 10SM SCT018 28/24 A2985 RMK AO2 SLP103 60000 T02780244 10283 20239 56026
cycle: 18

Station Type Date Time Source
KMBL TAF 2020/08/10 18:21 UTC NOAA

TAF KMBL 101720Z 1018/1118 21007KT P6SM BKN015 OVC030
FM102000 23007KT P6SM VCTS SCT040 OVC080CB
FM110100 25006KT P6SM VCSH SCT035 OVC060
FM110400 VRB03KT P6SM OVC025
FM110800 28007KT P6SM SCT040

Example: see airport list